createdAt,value
2018-08-31T00:02:25.194Z,18.20
2018-08-31T00:05:05.109Z,18.10
2018-08-31T00:07:47.861Z,18.00
2018-08-31T00:10:33.232Z,18.10
2018-08-31T00:13:01.846Z,18.10
2018-08-31T00:15:30.616Z,18.10
2018-08-31T00:17:59.226Z,18.00
2018-08-31T00:20:27.947Z,18.00
2018-08-31T00:22:56.540Z,18.00
2018-08-31T00:26:09.719Z,18.00
2018-08-31T00:28:50.460Z,17.90
2018-08-31T00:33:36.604Z,17.90
2018-08-31T00:38:23.549Z,17.80
2018-08-31T00:41:20.194Z,17.80
2018-08-31T00:46:00.174Z,17.80
2018-08-31T00:48:28.796Z,17.80
2018-08-31T00:50:57.480Z,17.80
2018-08-31T00:53:26.136Z,17.80
2018-08-31T00:55:54.799Z,17.80
2018-08-31T00:58:23.421Z,17.70
2018-08-31T01:00:51.981Z,17.70
2018-08-31T01:03:20.610Z,17.70
2018-08-31T01:05:49.215Z,17.70
2018-08-31T01:08:17.813Z,17.60
2018-08-31T01:10:46.395Z,17.60
2018-08-31T01:13:15.005Z,17.60
2018-08-31T01:15:43.627Z,17.50
2018-08-31T01:18:12.259Z,17.50
2018-08-31T01:20:40.901Z,17.50
2018-08-31T01:23:09.684Z,17.50
2018-08-31T01:25:38.274Z,17.50
2018-08-31T01:28:06.907Z,17.50
2018-08-31T01:30:35.592Z,17.50
2018-08-31T01:33:04.175Z,17.60
2018-08-31T01:35:32.967Z,17.60
2018-08-31T01:38:01.620Z,17.50
2018-08-31T01:40:30.173Z,17.60
2018-08-31T01:42:58.786Z,17.60
2018-08-31T01:45:27.324Z,17.60
2018-08-31T01:47:55.858Z,17.70
2018-08-31T01:50:24.528Z,17.80
2018-08-31T01:52:53.180Z,17.80
2018-08-31T01:55:26.954Z,17.80
2018-08-31T01:57:55.550Z,17.80
2018-08-31T02:00:24.191Z,17.70
2018-08-31T02:02:52.752Z,17.70
2018-08-31T02:05:21.309Z,17.70
2018-08-31T02:07:49.909Z,17.60
2018-08-31T02:10:20.608Z,17.50
2018-08-31T02:12:49.184Z,17.40
2018-08-31T02:15:17.741Z,17.40
2018-08-31T02:17:46.368Z,17.40
2018-08-31T02:20:14.921Z,17.30
2018-08-31T02:22:44.552Z,17.20
2018-08-31T02:25:13.225Z,17.20
2018-08-31T02:27:41.838Z,17.30
2018-08-31T02:30:10.461Z,17.10
2018-08-31T02:32:39.067Z,17.20
2018-08-31T02:35:13.172Z,17.20
2018-08-31T02:37:41.799Z,17.30
2018-08-31T02:40:10.423Z,17.30
2018-08-31T02:42:39.050Z,17.40
2018-08-31T02:45:07.802Z,17.40
2018-08-31T02:47:36.418Z,17.40
2018-08-31T02:50:05.062Z,17.40
2018-08-31T02:52:33.684Z,17.40
2018-08-31T02:55:02.250Z,17.50
2018-08-31T02:57:30.837Z,17.50
2018-08-31T02:59:59.402Z,17.50
2018-08-31T03:02:27.971Z,17.40
2018-08-31T03:04:56.599Z,17.40
2018-08-31T03:07:25.225Z,17.50
2018-08-31T03:09:53.863Z,17.40
2018-08-31T03:12:22.462Z,17.30
2018-08-31T03:14:51.090Z,17.30
2018-08-31T03:17:19.695Z,17.20
2018-08-31T03:19:48.258Z,17.20
2018-08-31T03:22:16.905Z,17.10
2018-08-31T03:24:46.579Z,17.00
2018-08-31T03:27:15.189Z,17.00
2018-08-31T03:29:43.811Z,17.00
2018-08-31T03:32:12.412Z,17.00
2018-08-31T03:34:41.073Z,17.00
2018-08-31T03:37:09.635Z,17.10
2018-08-31T03:39:40.318Z,17.00
2018-08-31T03:42:08.970Z,17.00
2018-08-31T03:44:37.557Z,17.00
2018-08-31T03:47:06.166Z,17.10
2018-08-31T03:49:34.750Z,17.00
2018-08-31T03:52:03.321Z,17.00
2018-08-31T03:54:31.922Z,17.10
2018-08-31T03:57:01.049Z,17.00
2018-08-31T03:59:29.582Z,17.00
2018-08-31T04:01:58.155Z,17.00
2018-08-31T04:04:26.729Z,17.00
2018-08-31T04:06:55.326Z,17.00
2018-08-31T04:09:23.976Z,17.00
2018-08-31T04:11:52.557Z,16.90
2018-08-31T04:14:21.171Z,16.90
2018-08-31T04:16:49.814Z,17.00
2018-08-31T04:19:18.618Z,17.00
2018-08-31T04:21:47.429Z,17.00
2018-08-31T04:24:16.745Z,16.90
2018-08-31T04:26:46.056Z,16.80
2018-08-31T04:29:14.680Z,16.70
2018-08-31T04:31:43.264Z,16.80
2018-08-31T04:34:12.497Z,16.80
2018-08-31T04:36:41.959Z,16.80
2018-08-31T04:39:12.136Z,16.90
2018-08-31T04:41:41.213Z,16.90
2018-08-31T04:44:09.775Z,16.80
2018-08-31T04:46:38.417Z,16.80
2018-08-31T04:49:07.197Z,16.90
2018-08-31T04:51:35.776Z,16.90
2018-08-31T04:54:04.410Z,16.90
2018-08-31T04:56:32.992Z,16.80
2018-08-31T04:59:01.756Z,16.90
2018-08-31T05:01:30.265Z,16.90
2018-08-31T05:04:00.113Z,16.90
2018-08-31T05:06:28.672Z,17.00
2018-08-31T05:08:57.209Z,17.00
2018-08-31T05:11:25.867Z,17.00
2018-08-31T05:13:54.434Z,17.00
2018-08-31T05:16:23.005Z,16.90
2018-08-31T05:18:51.591Z,16.90
2018-08-31T05:21:20.118Z,17.00
2018-08-31T05:23:54.300Z,16.90
2018-08-31T05:26:22.874Z,17.00
2018-08-31T05:28:51.599Z,17.00
2018-08-31T05:31:20.168Z,17.00
2018-08-31T05:33:48.849Z,17.10
2018-08-31T05:36:17.431Z,17.10
2018-08-31T05:38:46.071Z,17.10
2018-08-31T05:41:14.646Z,17.10
2018-08-31T05:43:43.252Z,17.20
2018-08-31T05:46:11.811Z,17.20
2018-08-31T05:48:40.391Z,17.20
2018-08-31T05:51:08.989Z,17.20
2018-08-31T05:53:37.670Z,17.20
2018-08-31T05:56:08.411Z,17.20
2018-08-31T05:58:37.056Z,17.30
2018-08-31T06:01:05.646Z,17.30
2018-08-31T06:03:34.190Z,17.30
2018-08-31T06:06:02.974Z,17.40
2018-08-31T06:08:31.634Z,17.40
2018-08-31T06:11:00.250Z,17.50
2018-08-31T06:13:28.987Z,17.60
2018-08-31T06:15:57.636Z,17.70
2018-08-31T06:18:26.212Z,17.70
2018-08-31T06:20:54.848Z,17.80
2018-08-31T06:23:23.420Z,17.70
2018-08-31T06:25:51.996Z,17.70
2018-08-31T06:28:20.579Z,17.70
2018-08-31T06:30:49.248Z,17.70
2018-08-31T06:33:17.851Z,17.80
2018-08-31T06:35:46.480Z,17.70
2018-08-31T06:38:15.080Z,17.80
2018-08-31T06:40:43.801Z,17.80
2018-08-31T06:43:12.369Z,17.70
2018-08-31T06:45:40.955Z,17.70
2018-08-31T06:48:09.576Z,17.70
2018-08-31T06:50:49.692Z,17.70
2018-08-31T06:53:18.286Z,17.70
2018-08-31T06:55:46.889Z,17.70
2018-08-31T06:58:15.537Z,17.50
2018-08-31T07:00:44.184Z,17.40
2018-08-31T07:03:12.738Z,17.40
2018-08-31T07:05:41.340Z,17.30
2018-08-31T07:08:09.931Z,17.30
2018-08-31T07:10:38.517Z,17.30
2018-08-31T07:13:07.102Z,17.30
2018-08-31T07:15:35.754Z,17.30
2018-08-31T07:18:04.403Z,17.40
2018-08-31T07:20:33.042Z,17.20
2018-08-31T07:23:05.453Z,17.20
2018-08-31T07:25:34.052Z,17.20
2018-08-31T07:28:02.614Z,17.20
2018-08-31T07:30:31.207Z,17.20
2018-08-31T07:32:59.864Z,17.10
2018-08-31T07:35:28.446Z,17.10
2018-08-31T07:37:57.047Z,17.00
2018-08-31T07:40:25.681Z,17.00
2018-08-31T07:42:54.205Z,16.90
2018-08-31T07:45:22.836Z,16.90
2018-08-31T07:47:51.463Z,16.90
2018-08-31T07:50:20.029Z,17.00
2018-08-31T07:52:48.678Z,17.10
2018-08-31T07:55:17.251Z,17.10
2018-08-31T07:57:45.817Z,17.20
2018-08-31T08:00:15.394Z,17.20
2018-08-31T08:02:43.981Z,17.20
2018-08-31T08:05:12.576Z,17.10
2018-08-31T08:07:41.147Z,17.10
2018-08-31T08:10:09.774Z,17.20
2018-08-31T08:12:38.331Z,17.10
2018-08-31T08:15:06.975Z,17.00
2018-08-31T08:17:35.551Z,16.80
2018-08-31T08:20:06.318Z,16.80
2018-08-31T08:22:35.038Z,16.70
2018-08-31T08:25:03.675Z,16.80
2018-08-31T08:27:32.232Z,16.70
2018-08-31T08:30:00.820Z,16.70
2018-08-31T08:32:29.442Z,16.60
2018-08-31T08:34:57.934Z,16.70
2018-08-31T08:37:26.517Z,16.70
2018-08-31T08:43:09.909Z,16.80
2018-08-31T08:45:38.467Z,16.80
2018-08-31T08:48:07.170Z,16.80
2018-08-31T08:50:35.677Z,16.70
2018-08-31T08:53:04.498Z,16.60
2018-08-31T08:55:33.224Z,16.70
2018-08-31T08:58:01.911Z,16.70
2018-08-31T09:00:30.452Z,16.60
2018-08-31T09:02:59.128Z,16.50
2018-08-31T09:05:27.780Z,16.40
2018-08-31T09:07:56.385Z,16.40
2018-08-31T09:10:24.981Z,16.30
2018-08-31T09:12:53.552Z,16.30
2018-08-31T09:15:22.207Z,16.20
2018-08-31T09:17:51.133Z,16.10
2018-08-31T09:20:19.895Z,16.00
2018-08-31T09:22:48.563Z,16.10
2018-08-31T09:25:17.160Z,15.90
2018-08-31T09:27:45.761Z,15.90
2018-08-31T09:30:24.571Z,16.00
2018-08-31T09:32:53.197Z,16.10
2018-08-31T09:35:21.736Z,16.20
2018-08-31T09:37:50.395Z,16.30
2018-08-31T09:40:18.929Z,16.40
2018-08-31T09:42:47.560Z,16.40
2018-08-31T09:45:16.082Z,16.20
2018-08-31T09:47:44.787Z,16.30
2018-08-31T09:50:13.396Z,16.20
2018-08-31T09:52:42.056Z,16.00
2018-08-31T09:55:10.695Z,15.90
2018-08-31T09:57:39.277Z,15.80
2018-08-31T10:00:07.887Z,15.80
2018-08-31T10:03:41.553Z,15.90
2018-08-31T10:06:10.149Z,16.00
2018-08-31T10:08:38.813Z,15.90
2018-08-31T10:11:07.447Z,15.90
2018-08-31T10:13:36.098Z,15.90
2018-08-31T10:16:04.717Z,15.80
2018-08-31T10:18:33.390Z,16.00
2018-08-31T10:21:01.962Z,16.10
2018-08-31T10:23:30.631Z,16.20
2018-08-31T10:25:59.196Z,16.30
2018-08-31T10:28:27.869Z,16.40
2018-08-31T10:30:56.524Z,16.40
2018-08-31T10:33:25.106Z,16.50
2018-08-31T10:35:53.655Z,16.50
2018-08-31T10:38:22.258Z,16.60
2018-08-31T10:40:50.864Z,16.50
2018-08-31T10:43:19.433Z,16.50
2018-08-31T10:45:48.078Z,16.50
2018-08-31T10:48:16.670Z,16.50
2018-08-31T10:50:45.319Z,16.70
2018-08-31T10:53:13.903Z,16.80
2018-08-31T10:55:42.498Z,17.10
2018-08-31T10:58:11.130Z,17.30
2018-08-31T11:00:39.797Z,17.30
2018-08-31T11:03:08.494Z,17.30
2018-08-31T11:05:37.083Z,17.20
2018-08-31T11:08:05.713Z,17.10
2018-08-31T11:10:34.227Z,17.20
2018-08-31T11:13:02.926Z,17.20
2018-08-31T11:15:31.463Z,17.20
2018-08-31T11:18:00.076Z,17.40
2018-08-31T11:20:28.703Z,17.40
2018-08-31T11:22:57.357Z,17.40
2018-08-31T11:25:25.921Z,17.50
2018-08-31T11:27:54.656Z,17.60
2018-08-31T11:30:29.320Z,17.70
2018-08-31T11:32:58.261Z,17.80
2018-08-31T11:35:26.903Z,17.70
2018-08-31T11:37:55.498Z,17.80
2018-08-31T11:40:24.062Z,17.90
2018-08-31T11:42:52.607Z,17.80
2018-08-31T11:45:22.298Z,17.80
2018-08-31T11:47:50.840Z,17.90
2018-08-31T11:50:19.455Z,17.80
2018-08-31T11:52:48.057Z,17.60
2018-08-31T11:55:16.730Z,17.40
2018-08-31T11:57:45.199Z,17.40
2018-08-31T12:00:15.879Z,17.40
2018-08-31T12:02:44.466Z,17.40
2018-08-31T12:05:13.087Z,17.40
2018-08-31T12:07:41.760Z,17.40
2018-08-31T12:10:10.304Z,17.60
2018-08-31T12:12:39.224Z,17.70
2018-08-31T12:15:07.881Z,17.80
2018-08-31T12:17:36.441Z,17.80
2018-08-31T12:20:05.342Z,17.90
2018-08-31T12:22:33.893Z,17.80
2018-08-31T12:25:02.525Z,17.80
2018-08-31T12:27:31.127Z,17.90
2018-08-31T12:30:10.862Z,17.80
2018-08-31T12:32:39.492Z,17.90
2018-08-31T12:35:08.069Z,17.90
2018-08-31T12:37:36.621Z,18.10
2018-08-31T12:40:05.705Z,18.10
2018-08-31T12:42:34.325Z,18.10
2018-08-31T12:45:15.220Z,18.30
2018-08-31T12:47:43.915Z,18.40
2018-08-31T12:50:12.599Z,18.30
2018-08-31T12:52:41.188Z,18.10
2018-08-31T12:55:09.936Z,18.20
2018-08-31T12:57:45.248Z,18.20
2018-08-31T13:00:13.901Z,18.30
2018-08-31T13:02:42.534Z,18.40
2018-08-31T13:05:12.301Z,18.30
2018-08-31T13:07:40.888Z,18.40
2018-08-31T13:10:09.474Z,18.40
2018-08-31T13:12:38.099Z,18.40
2018-08-31T13:15:06.886Z,18.20
2018-08-31T13:17:42.998Z,18.10
2018-08-31T13:20:16.441Z,18.20
2018-08-31T13:22:50.596Z,18.20
2018-08-31T13:25:19.241Z,18.00
2018-08-31T13:27:47.845Z,18.10
2018-08-31T13:30:16.418Z,18.00
2018-08-31T13:32:47.035Z,17.90
2018-08-31T13:35:15.616Z,17.70
2018-08-31T13:37:44.184Z,17.80
2018-08-31T13:40:12.967Z,17.80
2018-08-31T13:42:52.128Z,17.90
2018-08-31T13:45:20.842Z,17.80
2018-08-31T13:47:51.052Z,17.90
2018-08-31T13:50:20.733Z,18.00
2018-08-31T13:52:49.266Z,18.00
2018-08-31T13:55:17.825Z,18.10
2018-08-31T13:57:46.572Z,18.20
2018-08-31T14:00:15.337Z,18.10
2018-08-31T14:02:43.976Z,18.10
2018-08-31T14:05:12.603Z,18.20
2018-08-31T14:07:41.226Z,18.40
2018-08-31T14:10:09.883Z,18.40
2018-08-31T14:12:44.204Z,18.30
2018-08-31T14:15:12.777Z,18.30
2018-08-31T14:17:41.422Z,18.20
2018-08-31T14:20:10.077Z,18.10
2018-08-31T14:22:38.653Z,18.00
2018-08-31T14:25:07.262Z,17.90
2018-08-31T14:27:35.869Z,17.90
2018-08-31T14:30:04.790Z,17.90
2018-08-31T14:32:33.417Z,17.90
2018-08-31T14:35:01.993Z,18.00
2018-08-31T14:37:30.895Z,18.10
2018-08-31T14:39:59.587Z,18.00
2018-08-31T14:42:28.190Z,18.00
2018-08-31T14:44:56.741Z,17.90
2018-08-31T14:47:25.343Z,17.90
2018-08-31T14:49:54.099Z,17.80
2018-08-31T14:52:22.625Z,17.70
2018-08-31T14:55:04.277Z,17.60
2018-08-31T14:57:32.981Z,17.50
2018-08-31T15:00:05.736Z,17.60
2018-08-31T15:02:34.307Z,17.40
2018-08-31T15:05:02.922Z,17.40
2018-08-31T15:07:31.749Z,17.40
2018-08-31T15:10:00.453Z,17.30
2018-08-31T15:12:32.985Z,17.40
2018-08-31T15:15:01.669Z,17.50
2018-08-31T15:17:31.583Z,17.60
2018-08-31T15:20:00.279Z,17.80
2018-08-31T15:22:34.634Z,17.80
2018-08-31T15:25:03.322Z,17.80
2018-08-31T15:27:34.003Z,17.80
2018-08-31T15:30:02.894Z,17.90
2018-08-31T15:32:31.556Z,18.00
2018-08-31T15:35:00.096Z,18.10
2018-08-31T15:37:28.659Z,18.00
2018-08-31T15:39:57.182Z,17.90
2018-08-31T15:42:25.789Z,17.90
2018-08-31T15:44:54.368Z,17.80
2018-08-31T15:47:22.941Z,17.80
2018-08-31T15:49:51.623Z,17.70
2018-08-31T15:52:20.133Z,17.70
2018-08-31T15:54:48.778Z,17.80
2018-08-31T15:57:17.345Z,17.70
2018-08-31T15:59:45.970Z,17.70
2018-08-31T16:02:14.623Z,17.60
2018-08-31T16:04:46.732Z,17.60
2018-08-31T16:07:15.363Z,17.50
2018-08-31T16:09:43.976Z,17.50
2018-08-31T16:12:12.580Z,17.50
2018-08-31T16:14:45.829Z,17.50
2018-08-31T16:17:14.860Z,17.50
2018-08-31T16:19:43.403Z,17.40
2018-08-31T16:22:12.073Z,17.40
2018-08-31T16:24:40.651Z,17.40
2018-08-31T16:27:09.321Z,17.40
2018-08-31T16:29:38.981Z,17.40
2018-08-31T16:32:07.700Z,17.40
2018-08-31T16:34:36.214Z,17.40
2018-08-31T16:37:18.238Z,17.30
2018-08-31T16:39:46.806Z,17.30
2018-08-31T16:42:15.803Z,17.30
2018-08-31T16:44:45.859Z,17.20
2018-08-31T16:47:19.539Z,17.30
2018-08-31T16:49:48.368Z,17.30
2018-08-31T16:52:17.324Z,17.40
2018-08-31T16:54:46.193Z,17.40
2018-08-31T16:57:15.085Z,17.50
2018-08-31T16:59:43.844Z,17.40
2018-08-31T17:02:12.866Z,17.40
2018-08-31T17:04:41.800Z,17.40
2018-08-31T17:07:10.683Z,17.50
2018-08-31T17:09:39.543Z,17.50
2018-08-31T17:12:08.448Z,17.40
2018-08-31T17:14:37.261Z,17.30
2018-08-31T17:17:06.357Z,17.40
2018-08-31T17:19:35.304Z,17.40
2018-08-31T17:22:04.506Z,17.30
2018-08-31T17:24:38.870Z,17.30
2018-08-31T17:27:13.175Z,17.20
2018-08-31T17:29:45.674Z,17.20
2018-08-31T17:32:20.276Z,17.20
2018-08-31T17:34:54.395Z,17.20
2018-08-31T17:37:28.462Z,17.20
2018-08-31T17:39:59.373Z,17.10
2018-08-31T17:42:30.273Z,17.10
2018-08-31T17:44:59.288Z,17.10
2018-08-31T17:47:29.340Z,17.00
2018-08-31T17:49:58.278Z,17.00
2018-08-31T17:52:27.221Z,16.90
2018-08-31T17:54:56.277Z,16.90
2018-08-31T17:57:25.570Z,16.90
2018-08-31T17:59:54.658Z,16.90
2018-08-31T18:02:23.446Z,16.90
2018-08-31T18:04:52.277Z,16.90
2018-08-31T18:07:24.570Z,17.00
2018-08-31T18:09:53.505Z,16.90
2018-08-31T18:12:22.331Z,16.90
2018-08-31T18:14:52.266Z,16.90
2018-08-31T18:17:21.168Z,16.80
2018-08-31T18:19:50.051Z,16.70
2018-08-31T18:22:18.911Z,16.80
2018-08-31T18:24:47.829Z,16.60
2018-08-31T18:27:16.821Z,16.60
2018-08-31T18:29:45.761Z,16.60
2018-08-31T18:32:22.626Z,16.50
2018-08-31T18:34:51.552Z,16.50
2018-08-31T18:37:22.557Z,16.40
2018-08-31T18:39:51.626Z,16.40
2018-08-31T18:42:20.758Z,16.50
2018-08-31T18:44:49.660Z,16.50
2018-08-31T18:47:18.559Z,16.60
2018-08-31T18:49:47.834Z,16.60
2018-08-31T18:52:16.879Z,16.60
2018-08-31T18:54:45.758Z,16.70
2018-08-31T18:57:18.040Z,16.70
2018-08-31T18:59:46.942Z,16.70
2018-08-31T19:02:15.828Z,16.70
2018-08-31T19:04:47.886Z,16.70
2018-08-31T19:07:16.842Z,16.70
2018-08-31T19:09:47.829Z,16.70
2018-08-31T19:12:16.799Z,16.70
2018-08-31T19:14:45.748Z,16.80
2018-08-31T19:17:15.762Z,16.80
2018-08-31T19:19:44.649Z,16.80
2018-08-31T19:22:13.545Z,16.90
2018-08-31T19:24:42.674Z,16.90
2018-08-31T19:27:14.011Z,16.90
2018-08-31T19:29:43.106Z,16.90
2018-08-31T19:32:12.489Z,16.90
2018-08-31T19:34:41.583Z,16.90
2018-08-31T19:37:10.798Z,16.80
2018-08-31T19:39:40.008Z,16.60
2018-08-31T19:42:11.185Z,16.60
2018-08-31T19:44:40.306Z,16.70
2018-08-31T19:47:09.534Z,16.70
2018-08-31T19:49:51.429Z,16.80
2018-08-31T19:52:20.469Z,16.80
2018-08-31T19:54:49.554Z,16.80
2018-08-31T19:57:18.670Z,16.90
2018-08-31T19:59:56.090Z,16.80
2018-08-31T20:02:26.212Z,16.70
2018-08-31T20:04:59.167Z,16.60
2018-08-31T20:07:27.988Z,16.60
2018-08-31T20:09:56.642Z,16.50
2018-08-31T20:12:25.276Z,16.50
2018-08-31T20:15:05.736Z,16.50
2018-08-31T20:17:34.442Z,16.50
2018-08-31T20:20:03.112Z,16.60
2018-08-31T20:22:31.690Z,16.70
2018-08-31T20:25:00.357Z,16.70
2018-08-31T20:27:28.969Z,16.50
2018-08-31T20:29:57.561Z,16.40
2018-08-31T20:32:26.205Z,16.40
2018-08-31T20:34:54.873Z,16.50
2018-08-31T20:37:23.445Z,16.50
2018-08-31T20:39:52.087Z,16.50
2018-08-31T20:42:20.641Z,16.50
2018-08-31T20:44:49.432Z,16.50
2018-08-31T20:47:18.005Z,16.50
2018-08-31T20:49:46.590Z,16.50
2018-08-31T20:52:15.216Z,16.50
2018-08-31T20:54:43.828Z,16.50
2018-08-31T20:57:12.453Z,16.50
2018-08-31T20:59:47.080Z,16.50
2018-08-31T21:02:15.745Z,16.60
2018-08-31T21:04:44.331Z,16.60
2018-08-31T21:07:12.998Z,16.50
2018-08-31T21:09:41.564Z,16.40
2018-08-31T21:12:10.195Z,16.30
2018-08-31T21:14:52.825Z,16.20
2018-08-31T21:17:21.500Z,16.20
2018-08-31T21:19:50.182Z,16.10
2018-08-31T21:22:18.810Z,16.00
2018-08-31T21:24:47.454Z,16.00
2018-08-31T21:27:16.072Z,16.00
2018-08-31T21:29:44.701Z,16.00
2018-08-31T21:32:13.386Z,15.90
2018-08-31T21:34:41.955Z,15.90
2018-08-31T21:37:10.592Z,15.90
2018-08-31T21:39:39.136Z,16.00
2018-08-31T21:42:07.926Z,16.00
2018-08-31T21:44:36.355Z,16.00
2018-08-31T21:47:05.027Z,16.00
2018-08-31T21:49:33.781Z,16.00
2018-08-31T21:52:02.368Z,16.00
2018-08-31T21:54:31.057Z,16.10
2018-08-31T21:56:59.701Z,16.10
2018-08-31T21:59:28.354Z,16.10
2018-08-31T22:01:56.966Z,16.00
2018-08-31T22:04:25.550Z,16.10
2018-08-31T22:06:54.184Z,16.10
2018-08-31T22:09:22.821Z,16.00
2018-08-31T22:11:51.434Z,16.00
2018-08-31T22:14:20.012Z,16.10
2018-08-31T22:16:48.588Z,16.00
2018-08-31T22:19:17.209Z,15.90
2018-08-31T22:21:45.862Z,15.90
2018-08-31T22:24:14.478Z,15.80
2018-08-31T22:26:43.110Z,15.80
2018-08-31T22:29:11.667Z,15.80
2018-08-31T22:31:40.313Z,15.70
2018-08-31T22:34:08.835Z,15.70
2018-08-31T22:36:37.393Z,15.60
2018-08-31T22:39:07.700Z,15.50
2018-08-31T22:41:36.412Z,15.50
2018-08-31T22:44:10.603Z,15.50
2018-08-31T22:46:39.156Z,15.40
2018-08-31T22:49:07.798Z,15.40
2018-08-31T22:51:36.363Z,15.40
2018-08-31T22:54:04.940Z,15.30
2018-08-31T22:56:33.586Z,15.30
2018-08-31T22:59:02.177Z,15.30
2018-08-31T23:01:30.839Z,15.30
2018-08-31T23:03:59.470Z,15.30
2018-08-31T23:06:28.017Z,15.30
2018-08-31T23:08:56.581Z,15.30
2018-08-31T23:11:25.117Z,15.30
2018-08-31T23:14:01.159Z,15.30
2018-08-31T23:16:29.834Z,15.30
2018-08-31T23:18:58.421Z,15.30
2018-08-31T23:21:27.029Z,15.40
2018-08-31T23:23:55.628Z,15.40
2018-08-31T23:26:24.230Z,15.40
2018-08-31T23:28:54.862Z,15.40
2018-08-31T23:31:23.421Z,15.40
2018-08-31T23:33:52.013Z,15.30
2018-08-31T23:36:20.578Z,15.30
2018-08-31T23:38:49.276Z,15.30
2018-08-31T23:41:25.366Z,15.30
2018-08-31T23:43:54.025Z,15.40
2018-08-31T23:46:22.604Z,15.30
2018-08-31T23:48:51.209Z,15.40
2018-08-31T23:51:24.714Z,15.40
2018-08-31T23:53:53.293Z,15.50
2018-08-31T23:56:21.870Z,15.50
2018-08-31T23:58:50.509Z,15.50
